Time;durP1;ratioP1;P1;durP2;ratioP2;P2;SDS_P1;SDS_P2;PMS_P1;PMS_P2;Temp;Humidity;BMP_temperature;BMP_pressure;BME280_temperature;BME280_humidity;BME280_pressure;Samples;Min_cycle;Max_cycle;Signal;HPM_P1;HPM_P2
2024/01/25 00:02:19;;;;;;;0.70;0.70;;;;;;;5.81;90.27;100325.59;5032984;28;20200;-77
2024/01/25 00:04:46;;;;;;;1.33;1.33;;;;;;;5.27;87.02;100195.81;5033534;28;20601;-78
2024/01/25 00:07:14;;;;;;;0.60;0.60;;;;;;;5.60;83.72;100197.88;5033135;28;20192;-77
2024/01/25 00:09:41;;;;;;;0.80;0.80;;;;;;;5.74;81.80;100199.25;5032667;28;20247;-77
2024/01/25 00:12:08;;;;;;;0.77;0.77;;;;;;;6.12;80.71;100258.13;5032626;28;20211;-76
2024/01/25 00:14:35;;;;;;;1.00;1.00;;;;;;;6.11;80.05;100222.91;5032774;28;20201;-76
2024/01/25 00:17:01;;;;;;;0.60;0.60;;;;;;;5.83;81.12;100186.69;5033032;28;20200;-75
2024/01/25 00:19:28;;;;;;;2.20;1.30;;;;;;;6.02;79.96;100207.16;5033171;28;20239;-76
2024/01/25 00:21:55;;;;;;;1.23;1.23;;;;;;;6.48;81.34;100285.16;5032555;28;20200;-76
2024/01/25 00:24:23;;;;;;;1.13;1.13;;;;;;;5.96;81.77;100197.50;5031477;28;20208;-75
2024/01/25 00:26:50;;;;;;;0.80;0.80;;;;;;;6.31;79.88;100278.53;5030487;28;20192;-75
2024/01/25 00:29:17;;;;;;;1.10;1.10;;;;;;;6.03;80.09;100218.34;5032706;28;20208;-75
2024/01/25 00:31:43;;;;;;;1.67;1.67;;;;;;;5.79;80.58;100170.28;5032098;28;20214;-76
2024/01/25 00:34:11;;;;;;;1.00;1.00;;;;;;;6.39;81.14;100271.94;5032111;28;20200;-76
2024/01/25 00:36:38;;;;;;;0.80;0.80;;;;;;;6.43;81.17;100276.38;5032322;28;20715;-75
2024/01/25 00:39:05;;;;;;;3.10;1.13;;;;;;;5.76;81.13;100156.44;5031923;28;20232;-76
2024/01/25 00:41:35;;;;;;;0.90;0.90;;;;;;;6.39;81.36;100282.25;5031910;28;20197;-76
2024/01/25 00:44:03;;;;;;;0.77;0.77;;;;;;;5.81;81.75;100185.78;5031869;28;20192;-76
2024/01/25 00:46:30;;;;;;;2.00;0.90;;;;;;;5.82;80.85;100187.50;5013371;28;20204;-75
2024/01/25 00:48:57;;;;;;;0.70;0.70;;;;;;;6.43;81.26;100303.84;5031659;28;20196;-75
2024/01/25 00:51:24;;;;;;;1.00;1.00;;;;;;;6.52;80.57;100305.88;4996972;28;20200;-78
2024/01/25 00:53:52;;;;;;;0.80;0.80;;;;;;;6.51;81.21;100307.56;5031853;28;20200;-76
2024/01/25 00:56:19;;;;;;;1.10;1.10;;;;;;;6.36;81.83;100282.16;5032101;28;20211;-77
2024/01/25 00:58:48;;;;;;;0.70;0.70;;;;;;;6.16;81.67;100221.38;5031992;28;20223;-78
2024/01/25 01:01:15;;;;;;;1.23;1.23;;;;;;;5.97;81.72;100188.97;5031644;28;20208;-77
2024/01/25 01:03:42;;;;;;;1.27;1.00;;;;;;;6.59;81.36;100300.09;5032248;28;20204;-76
2024/01/25 01:06:10;;;;;;;1.13;1.00;;;;;;;6.69;81.20;100317.63;4997113;28;20694;-76
2024/01/25 01:08:37;;;;;;;0.70;0.70;;;;;;;5.87;81.96;100165.44;5031442;28;20228;-76
2024/01/25 01:11:05;;;;;;;1.10;1.10;;;;;;;5.93;82.25;100191.38;4980652;28;20199;-76
2024/01/25 01:13:31;;;;;;;1.00;1.00;;;;;;;5.88;83.67;100196.38;5031682;28;20703;-78
2024/01/25 01:16:00;;;;;;;1.00;1.00;;;;;;;5.92;84.35;100210.22;4996642;28;20208;-76
2024/01/25 01:18:26;;;;;;;1.43;1.43;;;;;;;5.81;85.01;100191.81;5031409;28;20204;-76
2024/01/25 01:20:53;;;;;;;0.70;0.70;;;;;;;5.98;85.63;100225.88;5031594;28;20200;-76
2024/01/25 01:23:20;;;;;;;0.70;0.70;;;;;;;6.46;88.36;100309.97;5031545;28;20208;-76
2024/01/25 01:25:47;;;;;;;0.80;0.80;;;;;;;5.88;88.53;100198.06;5031427;28;20207;-77
2024/01/25 01:28:14;;;;;;;0.70;0.70;;;;;;;6.34;90.71;100286.38;5031441;28;20215;-77
2024/01/25 01:30:41;;;;;;;0.97;0.97;;;;;;;6.29;92.19;100276.72;5031188;28;20598;-77
2024/01/25 01:33:10;;;;;;;1.27;1.17;;;;;;;6.06;92.81;100219.31;5031150;28;20673;-76
2024/01/25 01:35:37;;;;;;;0.67;0.67;;;;;;;6.35;93.76;100243.50;5031075;28;20207;-76
2024/01/25 01:38:04;;;;;;;1.03;1.03;;;;;;;6.20;94.26;100215.53;5031376;28;20222;-76
2024/01/25 01:40:30;;;;;;;0.80;0.80;;;;;;;6.36;96.32;100242.63;5030975;28;20235;-76
2024/01/25 01:43:01;;;;;;;0.80;0.80;;;;;;;5.99;97.36;100140.16;4979935;28;20208;-77
2024/01/25 01:45:28;;;;;;;1.17;1.17;;;;;;;5.97;96.49;100164.94;5031291;28;20196;-76
2024/01/25 01:47:55;;;;;;;1.50;1.40;;;;;;;5.87;97.32;100148.31;5031101;28;20203;-76
2024/01/25 01:50:24;;;;;;;1.13;1.13;;;;;;;6.58;98.13;100277.72;5031390;28;20192;-75
2024/01/25 01:52:51;;;;;;;0.87;0.87;;;;;;;5.80;99.19;100154.03;5030941;28;20726;-76
2024/01/25 01:55:17;;;;;;;0.73;0.73;;;;;;;5.59;99.02;100121.53;5030774;28;20200;-76
2024/01/25 01:57:45;;;;;;;1.53;1.43;;;;;;;5.50;100.00;100117.81;5030917;28;20231;-76
2024/01/25 02:00:16;;;;;;;0.70;0.70;;;;;;;5.86;100.00;100163.69;5030048;28;20220;-76
2024/01/25 02:02:43;;;;;;;0.70;0.70;;;;;;;6.35;100.00;100249.50;5018988;28;20239;-76
2024/01/25 02:05:11;;;;;;;0.90;0.90;;;;;;;6.31;100.00;100247.63;5030741;28;20200;-77
2024/01/25 02:07:41;;;;;;;0.77;0.77;;;;;;;6.36;100.00;100248.66;5022153;28;20653;-77
2024/01/25 02:10:09;;;;;;;1.37;1.30;;;;;;;5.50;100.00;100112.66;5029362;28;20311;-77
2024/01/25 02:12:36;;;;;;;1.17;1.17;;;;;;;5.64;100.00;100132.84;5029935;28;20208;-77
2024/01/25 02:15:04;;;;;;;0.90;0.90;;;;;;;5.27;100.00;100075.00;5030554;28;20305;-76
2024/01/25 02:17:31;;;;;;;1.20;1.20;;;;;;;5.90;100.00;100179.28;5030755;28;20318;-76
2024/01/25 02:19:58;;;;;;;1.40;1.40;;;;;;;5.35;100.00;100075.28;4995812;28;20216;-76
2024/01/25 02:22:26;;;;;;;1.30;1.20;;;;;;;5.60;100.00;100121.56;5030274;28;20660;-76
2024/01/25 02:24:53;;;;;;;1.57;1.57;;;;;;;5.63;100.00;100131.13;5030753;28;20203;-76
2024/01/25 02:27:20;;;;;;;0.83;0.83;;;;;;;6.08;100.00;100215.06;5030365;28;20207;-76
2024/01/25 02:29:46;;;;;;;0.80;0.80;;;;;;;5.37;100.00;100107.03;5011659;28;20586;-77
2024/01/25 02:32:13;;;;;;;3.80;2.30;;;;;;;5.61;100.00;100127.59;4995277;28;20204;-76
2024/01/25 02:34:40;;;;;;;4.10;3.77;;;;;;;6.17;100.00;100212.81;5030520;28;20204;-76
2024/01/25 02:37:07;;;;;;;0.97;0.97;;;;;;;6.26;100.00;100236.31;5030529;28;20200;-75
2024/01/25 02:39:35;;;;;;;0.87;0.87;;;;;;;6.28;100.00;100239.81;5030092;28;20777;-76
2024/01/25 02:42:02;;;;;;;0.80;0.80;;;;;;;5.70;100.00;100146.81;5030312;28;20196;-76
2024/01/25 02:44:29;;;;;;;1.00;1.00;;;;;;;5.91;100.00;100188.78;5030144;28;20273;-76
2024/01/25 02:46:55;;;;;;;0.90;0.90;;;;;;;6.12;100.00;100229.81;5030444;28;20647;-76
2024/01/25 02:49:24;;;;;;;1.00;1.00;;;;;;;5.86;100.00;100173.97;5030070;28;20196;-76
2024/01/25 02:51:51;;;;;;;2.20;1.83;;;;;;;5.71;100.00;100127.09;5030064;28;20258;-76
2024/01/25 02:54:17;;;;;;;3.60;0.90;;;;;;;5.12;100.00;100023.06;5027788;28;20594;-75
2024/01/25 02:56:46;;;;;;;1.00;1.00;;;;;;;5.50;100.00;100075.78;5030435;28;20211;-76
2024/01/25 02:59:12;;;;;;;0.87;0.87;;;;;;;5.39;100.00;100060.00;5029793;28;20337;-76
2024/01/25 03:01:42;;;;;;;4.47;2.23;;;;;;;6.36;100.00;100222.94;5030441;28;20203;-76
2024/01/25 03:04:08;;;;;;;1.10;1.10;;;;;;;6.30;100.00;100215.00;5028609;28;20231;-76
2024/01/25 03:06:35;;;;;;;1.27;1.27;;;;;;;6.09;100.00;100173.09;5030055;28;20672;-77
2024/01/25 03:09:04;;;;;;;0.63;0.63;;;;;;;6.20;100.00;100196.63;5028221;28;20223;-78
2024/01/25 03:11:31;;;;;;;1.00;1.00;;;;;;;6.21;100.00;100222.38;5029216;28;20858;-77
2024/01/25 03:13:59;;;;;;;0.83;0.83;;;;;;;6.31;100.00;100218.47;5024515;28;20208;-76
2024/01/25 03:16:26;;;;;;;0.90;0.90;;;;;;;6.27;100.00;100235.50;5030041;28;20196;-77
2024/01/25 03:18:53;;;;;;;2.53;1.43;;;;;;;5.79;100.00;100148.81;5029456;28;20262;-77
2024/01/25 03:21:20;;;;;;;1.87;1.77;;;;;;;6.10;100.00;100210.84;5030489;28;20200;-77
2024/01/25 03:23:47;;;;;;;0.97;0.97;;;;;;;5.59;100.00;100127.56;5030964;28;20205;-77
2024/01/25 03:26:14;;;;;;;0.70;0.70;;;;;;;6.09;100.00;100203.97;5033922;28;20611;-78
2024/01/25 03:28:40;;;;;;;0.83;0.83;;;;;;;6.24;100.00;100235.38;5033967;28;20207;-76
2024/01/25 03:31:08;;;;;;;1.63;1.53;;;;;;;5.94;100.00;100172.56;5033634;28;20207;-76
2024/01/25 03:33:35;;;;;;;1.13;1.13;;;;;;;5.54;100.00;100112.78;4997269;28;20223;-76
2024/01/25 03:36:03;;;;;;;0.67;0.67;;;;;;;6.43;100.00;100226.56;5033279;28;20207;-75
2024/01/25 03:38:30;;;;;;;1.07;1.07;;;;;;;6.47;100.00;100228.44;5032888;28;20219;-76
2024/01/25 03:40:58;;;;;;;1.63;1.53;;;;;;;6.12;100.00;100160.31;5033352;28;20228;-76
2024/01/25 03:43:25;;;;;;;0.70;0.70;;;;;;;5.96;100.00;100129.72;5033693;28;20200;-76
2024/01/25 03:45:52;;;;;;;0.90;0.90;;;;;;;6.01;100.00;100135.91;5033344;28;20200;-76
2024/01/25 03:48:21;;;;;;;0.97;0.97;;;;;;;6.05;100.00;100148.06;5033270;28;20200;-76
2024/01/25 03:50:48;;;;;;;1.00;1.00;;;;;;;6.32;100.00;100197.88;5032275;28;20203;-76
2024/01/25 03:53:15;;;;;;;1.37;1.27;;;;;;;5.77;100.00;100107.63;5032965;28;20239;-76
2024/01/25 03:55:42;;;;;;;1.00;1.00;;;;;;;6.44;100.00;100212.88;5028623;28;20271;-76
2024/01/25 03:58:09;;;;;;;0.90;0.90;;;;;;;6.56;100.00;100222.72;5032832;28;20200;-76
2024/01/25 04:00:36;;;;;;;2.20;2.10;;;;;;;6.59;100.00;100204.78;5033162;28;20236;-79
2024/01/25 04:03:03;;;;;;;1.00;1.00;;;;;;;6.62;100.00;100212.63;5005287;28;20208;-78
2024/01/25 04:05:31;;;;;;;0.73;0.73;;;;;;;5.74;100.00;100060.34;5035436;28;20196;-79
2024/01/25 04:07:58;;;;;;;1.30;1.23;;;;;;;6.70;100.00;100219.78;5045893;28;20196;-77
2024/01/25 04:10:25;;;;;;;0.83;0.83;;;;;;;6.54;100.00;100186.59;5045854;28;20212;-77
2024/01/25 04:12:52;;;;;;;0.83;0.80;;;;;;;6.71;100.00;100218.06;5045422;28;20253;-77
2024/01/25 04:15:19;;;;;;;1.70;1.17;;;;;;;6.67;100.00;100193.03;5041296;28;20219;-77
2024/01/25 04:17:45;;;;;;;0.80;0.80;;;;;;;6.89;100.00;100226.38;5030391;28;20200;-77
2024/01/25 04:20:13;;;;;;;0.80;0.80;;;;;;;6.33;100.00;100122.41;5032355;28;20282;-79
2024/01/25 04:22:41;;;;;;;2.27;2.17;;;;;;;7.09;100.00;100237.31;5032183;28;20683;-76
2024/01/25 04:25:08;;;;;;;0.60;0.60;;;;;;;6.41;100.00;100113.25;5032329;28;20200;-77
2024/01/25 04:27:37;;;;;;;0.77;0.77;;;;;;;6.29;100.00;100130.84;4982891;28;20208;-76
2024/01/25 04:30:05;;;;;;;0.80;0.80;;;;;;;7.05;100.00;100241.50;5032687;28;20197;-78
2024/01/25 04:32:32;;;;;;;2.03;1.13;;;;;;;6.95;100.00;100236.91;5010417;28;20217;-75
2024/01/25 04:34:59;;;;;;;0.60;0.60;;;;;;;6.84;100.00;100218.53;5012249;28;20357;-76
2024/01/25 04:37:25;;;;;;;0.90;0.90;;;;;;;7.02;100.00;100251.72;4993772;28;20199;-77
2024/01/25 04:39:54;;;;;;;0.70;0.70;;;;;;;6.45;100.00;100138.25;5031743;28;20703;-77
2024/01/25 04:42:20;;;;;;;1.40;1.40;;;;;;;7.02;100.00;100254.31;5031771;28;20196;-78
2024/01/25 04:44:47;;;;;;;0.83;0.83;;;;;;;7.12;100.00;100256.34;5031892;28;20211;-77
2024/01/25 04:47:14;;;;;;;0.80;0.80;;;;;;;7.10;100.00;100244.25;5031125;28;20215;-76
2024/01/25 04:49:41;;;;;;;1.00;1.00;;;;;;;7.10;100.00;100254.56;5027496;28;20208;-76
2024/01/25 04:52:08;;;;;;;0.70;0.70;;;;;;;7.19;100.00;100258.28;5016383;28;20208;-78
2024/01/25 04:54:35;;;;;;;0.80;0.80;;;;;;;7.14;100.00;100266.69;5024708;28;20208;-76
2024/01/25 04:57:06;;;;;;;1.60;1.03;;;;;;;7.24;100.00;100266.19;5032208;28;20200;-78
2024/01/25 04:59:33;;;;;;;1.07;1.07;;;;;;;7.18;100.00;100273.69;5019885;28;20681;-78
2024/01/25 05:02:00;;;;;;;1.80;1.70;;;;;;;7.13;100.00;100267.53;4983132;28;20286;-78
2024/01/25 05:04:27;;;;;;;1.60;1.50;;;;;;;7.09;100.00;100279.47;5032214;28;20197;-78
2024/01/25 05:06:54;;;;;;;0.80;0.80;;;;;;;6.95;100.00;100279.03;5031973;28;20200;-78
2024/01/25 05:09:21;;;;;;;0.70;0.70;;;;;;;6.91;100.00;100258.25;5032035;28;20235;-76
2024/01/25 05:11:48;;;;;;;0.60;0.60;;;;;;;6.94;100.00;100285.00;5032061;28;20196;-79
2024/01/25 05:14:16;;;;;;;0.60;0.60;;;;;;;6.99;100.00;100290.31;4997182;28;20207;-78
2024/01/25 05:16:43;;;;;;;1.03;1.03;;;;;;;6.88;100.00;100291.66;5032134;28;20200;-78
2024/01/25 05:19:13;;;;;;;1.17;1.17;;;;;;;6.72;100.00;100261.91;5031722;28;20192;-78
2024/01/25 05:21:39;;;;;;;0.73;0.73;;;;;;;6.49;100.00;100240.53;5031753;28;20224;-81
2024/01/25 05:24:07;;;;;;;1.10;1.10;;;;;;;6.82;100.00;100307.78;5031951;28;20197;-79
2024/01/25 05:26:34;;;;;;;4.63;2.30;;;;;;;5.90;100.00;100168.13;5034546;28;20668;-78
2024/01/25 05:29:01;;;;;;;0.80;0.80;;;;;;;6.69;100.00;100317.63;4993993;28;20653;-77
2024/01/25 05:31:29;;;;;;;1.00;1.00;;;;;;;6.46;100.00;100273.91;5033209;28;20233;-75
2024/01/25 05:33:56;;;;;;;1.60;1.20;;;;;;;6.49;100.00;100286.88;5031461;28;20625;-75
2024/01/25 05:36:23;;;;;;;1.20;1.20;;;;;;;6.60;100.00;100317.31;5031481;28;20668;-76
2024/01/25 05:38:49;;;;;;;0.70;0.70;;;;;;;6.62;100.00;100315.66;4976658;28;20283;-75
2024/01/25 05:41:16;;;;;;;0.97;0.97;;;;;;;6.53;100.00;100302.47;5011168;28;20229;-76
2024/01/25 05:43:43;;;;;;;1.40;1.40;;;;;;;5.49;100.00;100128.91;5011558;28;20205;-76
2024/01/25 05:46:10;;;;;;;1.00;1.00;;;;;;;6.61;100.00;100303.59;5023150;28;20267;-74
2024/01/25 05:48:39;;;;;;;0.80;0.80;;;;;;;6.68;100.00;100310.69;5031239;28;20286;-76
2024/01/25 05:51:06;;;;;;;1.10;1.10;;;;;;;6.64;100.00;100307.16;5031638;28;20212;-77
2024/01/25 05:53:32;;;;;;;0.70;0.70;;;;;;;6.39;100.00;100271.94;5030843;28;20619;-73
2024/01/25 05:55:59;;;;;;;0.70;0.70;;;;;;;6.69;100.00;100312.47;5030585;28;20204;-72
2024/01/25 05:58:26;;;;;;;0.80;0.80;;;;;;;6.00;100.00;100198.47;5030728;28;20220;-74
2024/01/25 06:00:53;;;;;;;1.33;1.23;;;;;;;6.00;100.00;100198.47;5030627;28;20239;-73
2024/01/25 06:03:19;;;;;;;0.80;0.80;;;;;;;6.71;100.00;100310.81;5030669;28;20204;-74
2024/01/25 06:05:48;;;;;;;1.73;1.73;;;;;;;6.70;100.00;100309.97;5023740;28;20215;-74
2024/01/25 06:08:15;;;;;;;1.30;1.03;;;;;;;6.70;100.00;100319.38;5027445;28;20235;-75
2024/01/25 06:10:42;;;;;;;1.00;1.00;;;;;;;6.10;100.00;100204.84;5030504;28;20204;-75
2024/01/25 06:13:09;;;;;;;0.80;0.80;;;;;;;6.71;100.00;100311.69;5030330;28;20204;-73
2024/01/25 06:15:36;;;;;;;1.23;1.23;;;;;;;6.83;100.00;100306.06;5030644;28;20204;-74
2024/01/25 06:18:03;;;;;;;0.93;0.93;;;;;;;6.29;100.00;100213.25;5029787;28;20200;-73
2024/01/25 06:20:30;;;;;;;1.00;1.00;;;;;;;6.84;100.00;100308.72;5030804;28;20310;-73
2024/01/25 06:22:58;;;;;;;0.90;0.90;;;;;;;6.82;100.00;100301.72;4978960;28;20208;-74
2024/01/25 06:25:26;;;;;;;2.10;2.00;;;;;;;6.83;100.00;100306.97;5029903;28;20206;-74
2024/01/25 06:27:53;;;;;;;0.60;0.60;;;;;;;6.73;100.00;100294.59;5029710;28;20203;-74
2024/01/25 06:30:22;;;;;;;0.70;0.70;;;;;;;6.87;100.00;100310.50;5029839;28;20208;-74
2024/01/25 06:32:48;;;;;;;2.50;1.30;;;;;;;6.49;100.00;100232.81;4994694;28;20676;-75
2024/01/25 06:35:15;;;;;;;1.10;1.10;;;;;;;7.03;100.00;100323.06;5029851;28;20222;-75
2024/01/25 06:37:41;;;;;;;0.73;0.73;;;;;;;7.01;100.00;100310.97;5030162;28;20204;-76
2024/01/25 06:40:10;;;;;;;1.07;1.07;;;;;;;6.85;100.00;100287.25;5029943;28;20206;-75
2024/01/25 06:42:37;;;;;;;0.70;0.70;;;;;;;6.85;100.00;100300.13;5030207;28;20582;-76
2024/01/25 06:45:05;;;;;;;3.03;0.80;;;;;;;7.04;100.00;100311.06;5030030;28;20199;-75
2024/01/25 06:47:31;;;;;;;0.70;0.70;;;;;;;6.85;100.00;100276.06;5030340;28;20282;-75
2024/01/25 06:49:58;;;;;;;1.00;1.00;;;;;;;6.78;100.00;100271.53;5030116;28;20204;-75
2024/01/25 06:52:25;;;;;;;0.73;0.73;;;;;;;7.20;100.00;100319.34;5030018;28;20204;-74
2024/01/25 06:54:52;;;;;;;1.03;1.03;;;;;;;7.25;100.00;100330.66;5030120;28;20204;-72
2024/01/25 06:57:20;;;;;;;1.00;1.00;;;;;;;7.33;100.00;100330.91;5030140;28;20207;-74
2024/01/25 06:59:47;;;;;;;0.50;0.50;;;;;;;7.36;100.00;100331.00;4983487;28;20203;-76
2024/01/25 07:02:14;;;;;;;1.60;1.50;;;;;;;7.34;100.00;100302.63;5034389;28;20251;-74
2024/01/25 07:04:41;;;;;;;1.07;1.07;;;;;;;7.19;100.00;100275.44;5025011;28;20204;-73
2024/01/25 07:07:08;;;;;;;2.27;2.00;;;;;;;6.51;100.00;100144.41;5029324;28;20652;-72
2024/01/25 07:09:35;;;;;;;2.50;2.40;;;;;;;7.58;100.00;100327.41;4999112;28;20267;-73
2024/01/25 07:12:01;;;;;;;1.63;1.00;;;;;;;7.55;100.00;100332.47;5033799;28;20562;-74
2024/01/25 07:14:29;;;;;;;1.10;1.10;;;;;;;7.65;100.00;100331.91;5033767;28;20204;-73
2024/01/25 07:16:56;;;;;;;1.53;1.53;;;;;;;7.60;100.00;100305.13;5033730;28;20204;-74
2024/01/25 07:19:23;;;;;;;1.03;0.90;;;;;;;7.68;100.00;100334.59;5033499;28;20207;-73
2024/01/25 07:21:50;;;;;;;2.43;1.23;;;;;;;7.60;100.00;100329.19;5033678;28;20263;-73
2024/01/25 07:24:17;;;;;;;0.97;0.97;;;;;;;7.72;100.00;100331.28;5033786;28;20203;-74
2024/01/25 07:26:44;;;;;;;0.50;0.50;;;;;;;7.72;100.00;100310.63;5033718;28;20200;-74
2024/01/25 07:29:10;;;;;;;0.80;0.80;;;;;;;7.80;100.00;100314.31;5015044;28;20196;-73
2024/01/25 07:31:38;;;;;;;0.60;0.60;;;;;;;7.88;100.00;100318.00;5033315;28;20203;-72
2024/01/25 07:34:05;;;;;;;0.90;0.90;;;;;;;7.84;100.00;100308.41;5033284;28;20200;-73
2024/01/25 07:36:32;;;;;;;1.17;1.17;;;;;;;7.91;100.00;100300.03;5033242;28;20203;-72
2024/01/25 07:38:59;;;;;;;0.80;0.80;;;;;;;7.99;100.00;100311.44;5033305;28;20204;-73
2024/01/25 07:41:26;;;;;;;1.03;1.00;;;;;;;7.64;100.00;100247.59;5033231;28;20236;-73
2024/01/25 07:43:54;;;;;;;0.90;0.90;;;;;;;7.99;100.00;100314.00;4998293;28;20203;-72
2024/01/25 07:46:21;;;;;;;0.80;0.80;;;;;;;7.88;100.00;100302.53;5032964;28;20339;-73
2024/01/25 07:48:50;;;;;;;1.00;1.00;;;;;;;8.13;100.00;100327.34;5033109;28;20211;-73
2024/01/25 07:51:16;;;;;;;1.03;1.03;;;;;;;8.03;100.00;100318.44;5019513;28;20279;-73
2024/01/25 07:53:44;;;;;;;0.70;0.70;;;;;;;8.06;100.00;100328.88;5032987;28;20200;-73
2024/01/25 07:56:10;;;;;;;0.80;0.80;;;;;;;7.82;100.00;100284.25;5031080;28;20204;-73
2024/01/25 07:58:37;;;;;;;1.03;0.80;;;;;;;8.01;100.00;100307.19;5018993;28;20208;-73
2024/01/25 08:01:06;;;;;;;0.93;0.93;;;;;;;8.11;100.00;100328.97;5032870;28;20223;-73
2024/01/25 08:03:32;;;;;;;0.90;0.90;;;;;;;8.00;100.00;100295.13;5032957;28;20238;-73
2024/01/25 08:06:02;;;;;;;0.60;0.60;;;;;;;8.04;100.00;100303.81;5032843;28;20262;-72
2024/01/25 08:08:29;;;;;;;1.00;1.00;;;;;;;8.07;100.00;100306.47;5032846;28;20303;-72
2024/01/25 08:10:56;;;;;;;0.80;0.80;;;;;;;8.12;100.00;100323.00;5031770;28;20216;-72
2024/01/25 08:13:23;;;;;;;0.90;0.90;;;;;;;8.20;100.00;100347.34;4978351;28;20212;-72
2024/01/25 08:15:49;;;;;;;1.47;1.47;;;;;;;8.03;100.00;100317.56;5028443;28;20288;-71
2024/01/25 08:18:18;;;;;;;1.10;1.10;;;;;;;8.05;100.00;100334.88;5032665;28;20261;-72
2024/01/25 08:20:46;;;;;;;0.73;0.73;;;;;;;8.05;100.00;100327.13;5032649;28;20215;-72
2024/01/25 08:23:14;;;;;;;0.83;0.83;;;;;;;8.03;100.00;100328.75;5032513;28;20622;-72
2024/01/25 08:25:41;;;;;;;1.07;1.07;;;;;;;7.94;100.00;100313.91;5032400;28;20232;-72
2024/01/25 08:28:08;;;;;;;1.40;1.10;;;;;;;8.06;100.00;100328.88;4981192;28;20203;-72
2024/01/25 08:30:34;;;;;;;0.90;0.90;;;;;;;8.20;100.00;100343.06;5032452;28;20258;-72
2024/01/25 08:33:01;;;;;;;0.90;0.90;;;;;;;8.16;100.00;100310.22;5032303;28;20219;-72
2024/01/25 08:35:28;;;;;;;1.67;1.57;;;;;;;8.30;100.00;100336.47;5032533;28;20211;-74
2024/01/25 08:37:55;;;;;;;0.60;0.60;;;;;;;8.30;100.00;100334.75;5032076;28;20204;-73
2024/01/25 08:40:23;;;;;;;0.70;0.70;;;;;;;8.64;100.00;100336.53;5031980;28;20203;-74
2024/01/25 08:42:50;;;;;;;1.10;1.10;;;;;;;8.55;100.00;100335.44;5031871;28;20227;-75
2024/01/25 08:45:17;;;;;;;1.17;1.17;;;;;;;8.57;100.00;100336.34;4981179;28;20282;-74
2024/01/25 08:47:46;;;;;;;0.70;0.70;;;;;;;8.70;100.00;100330.69;5032222;28;20608;-74
2024/01/25 08:50:13;;;;;;;1.23;1.23;;;;;;;8.55;100.00;100335.44;5032027;28;20228;-75
2024/01/25 08:52:40;;;;;;;0.90;0.90;;;;;;;8.63;100.00;100329.66;5031879;28;20201;-72
2024/01/25 08:55:08;;;;;;;1.17;1.17;;;;;;;8.67;99.40;100331.44;5031673;28;20728;-73
2024/01/25 08:57:36;;;;;;;1.03;1.03;;;;;;;8.67;100.00;100328.03;5031811;28;20588;-72
2024/01/25 09:00:08;;;;;;;0.80;0.80;;;;;;;8.61;100.00;100320.06;4981054;28;20208;-71
2024/01/25 09:02:35;;;;;;;1.00;1.00;;;;;;;8.75;99.98;100329.94;5031719;28;20314;-71
2024/01/25 09:05:02;;;;;;;0.90;0.90;;;;;;;8.81;100.00;100334.41;5031674;28;20219;-71
2024/01/25 09:07:28;;;;;;;0.70;0.70;;;;;;;8.82;100.00;100320.63;5032007;28;20216;-73
2024/01/25 09:09:55;;;;;;;0.70;0.70;;;;;;;8.69;99.88;100328.91;5031366;28;20621;-73
2024/01/25 09:12:22;;;;;;;1.10;1.10;;;;;;;8.62;100.00;100327.00;4996687;28;20204;-72
2024/01/25 09:14:50;;;;;;;4.73;4.43;;;;;;;8.75;99.35;100323.91;4980913;28;20204;-72
2024/01/25 09:17:21;;;;;;;0.70;0.70;;;;;;;8.80;99.42;100335.25;5031732;28;20196;-72
2024/01/25 09:19:48;;;;;;;0.60;0.60;;;;;;;8.84;98.72;100334.50;5031705;28;20208;-72
2024/01/25 09:22:16;;;;;;;0.97;0.97;;;;;;;8.90;99.75;100345.00;5031516;28;20303;-72
2024/01/25 09:24:43;;;;;;;0.60;0.60;;;;;;;8.96;99.19;100338.25;4981399;28;20204;-72
2024/01/25 09:27:10;;;;;;;1.00;1.00;;;;;;;8.61;98.84;100279.59;5031685;28;20654;-72
2024/01/25 09:29:38;;;;;;;0.80;0.80;;;;;;;9.00;99.09;100336.63;5031793;28;20204;-72
2024/01/25 09:32:07;;;;;;;0.80;0.80;;;;;;;9.03;98.00;100321.19;5031435;28;20207;-72
2024/01/25 09:34:34;;;;;;;1.30;1.30;;;;;;;9.15;98.90;100336.13;5031403;28;20204;-72
2024/01/25 09:37:01;;;;;;;4.23;0.93;;;;;;;9.22;99.13;100330.28;5031226;28;20667;-72
2024/01/25 09:39:28;;;;;;;1.87;1.83;;;;;;;9.08;97.50;100296.31;5031166;28;20683;-72
2024/01/25 09:41:54;;;;;;;1.07;1.07;;;;;;;9.34;96.79;100322.81;4996260;28;20314;-72
2024/01/25 09:44:22;;;;;;;0.70;0.70;;;;;;;9.36;98.17;100321.13;5031262;28;20258;-72
2024/01/25 09:46:49;;;;;;;1.93;1.83;;;;;;;9.42;97.36;100331.59;5031095;28;20287;-73
2024/01/25 09:49:17;;;;;;;1.07;1.07;;;;;;;9.51;96.61;100328.38;4996460;28;20204;-72
2024/01/25 09:51:44;;;;;;;0.87;0.87;;;;;;;9.50;96.81;100324.91;5031295;28;20604;-72
2024/01/25 09:54:11;;;;;;;0.80;0.80;;;;;;;9.43;97.63;100323.91;5031020;28;20625;-72
2024/01/25 09:56:42;;;;;;;0.70;0.70;;;;;;;9.45;98.06;100318.78;5029396;28;20204;-74
2024/01/25 09:59:09;;;;;;;0.60;0.60;;;;;;;9.51;97.78;100315.44;5030673;28;20581;-73
2024/01/25 10:01:36;;;;;;;0.67;0.67;;;;;;;9.25;97.30;100271.72;5030416;28;20220;-72
2024/01/25 10:04:02;;;;;;;1.43;1.33;;;;;;;9.19;98.20;100304.34;5030684;28;20598;-72
2024/01/25 10:06:31;;;;;;;6.80;1.13;;;;;;;9.33;97.09;100287.41;5030923;28;20199;-73
2024/01/25 10:08:57;;;;;;;1.10;1.10;;;;;;;9.45;97.88;100285.97;5030709;28;20252;-73
2024/01/25 10:11:24;;;;;;;0.80;0.80;;;;;;;9.40;96.87;100266.91;5030587;28;20212;-73
2024/01/25 10:13:52;;;;;;;0.80;0.80;;;;;;;9.45;97.28;100296.31;5030370;28;20690;-72
2024/01/25 10:16:20;;;;;;;5.00;3.97;;;;;;;9.39;97.36;100280.66;5030435;28;20258;-73
2024/01/25 10:18:48;;;;;;;2.10;2.00;;;;;;;9.45;96.30;100275.63;5016633;28;20196;-73
2024/01/25 10:21:16;;;;;;;0.70;0.70;;;;;;;9.49;96.35;100273.13;5030536;28;20212;-73
2024/01/25 10:23:47;;;;;;;0.87;0.87;;;;;;;9.53;97.45;100274.91;5030219;28;20664;-75
2024/01/25 10:26:14;;;;;;;0.70;0.70;;;;;;;9.59;95.22;100265.59;5019280;28;20205;-74
2024/01/25 10:28:41;;;;;;;0.90;0.90;;;;;;;9.49;95.46;100245.50;5027789;28;20208;-74
2024/01/25 10:31:08;;;;;;;0.80;0.80;;;;;;;8.06;96.00;100026.78;4976090;28;20204;-74
2024/01/25 10:33:38;;;;;;;11.23;3.87;;;;;;;9.54;95.40;100254.25;5025228;28;20302;-75
2024/01/25 10:36:05;;;;;;;1.13;1.13;;;;;;;9.55;94.82;100240.47;5030022;28;20675;-76
2024/01/25 10:38:34;;;;;;;0.60;0.60;;;;;;;9.36;96.58;100223.69;5030246;28;20196;-72
2024/01/25 10:41:04;;;;;;;0.80;0.80;;;;;;;9.53;95.21;100252.50;5030321;28;20634;-73
2024/01/25 10:43:31;;;;;;;0.90;0.90;;;;;;;9.53;96.53;100244.72;5029985;28;20641;-72
2024/01/25 10:45:58;;;;;;;1.90;0.80;;;;;;;9.57;95.87;100238.78;5030042;28;20207;-72
2024/01/25 10:48:26;;;;;;;0.80;0.80;;;;;;;9.14;96.27;100177.47;5029932;28;20200;-74
2024/01/25 10:50:53;;;;;;;0.80;0.80;;;;;;;9.61;97.14;100225.06;5030104;28;20208;-71
2024/01/25 10:53:20;;;;;;;0.50;0.50;;;;;;;9.83;95.96;100231.56;5030121;28;20207;-73
2024/01/25 10:55:48;;;;;;;1.57;1.47;;;;;;;9.90;95.92;100217.91;5030039;28;20208;-72
2024/01/25 10:58:17;;;;;;;1.13;1.13;;;;;;;9.85;96.76;100201.38;5030230;28;20253;-72
2024/01/25 11:00:52;;;;;;;0.80;0.80;;;;;;;9.92;97.88;100200.66;5029759;28;20563;-72
2024/01/25 11:03:19;;;;;;;1.03;1.03;;;;;;;9.87;99.28;100213.53;5030249;28;20223;-72
2024/01/25 11:05:48;;;;;;;0.73;0.73;;;;;;;9.88;99.61;100180.75;4995648;28;20597;-72
2024/01/25 11:08:19;;;;;;;1.10;1.10;;;;;;;9.98;99.47;100189.56;5030266;28;20197;-72
2024/01/25 11:10:50;;;;;;;3.30;1.33;;;;;;;10.08;98.25;100200.13;5030006;28;20308;-72
2024/01/25 11:13:25;;;;;;;2.00;1.90;;;;;;;10.11;98.30;100195.00;5027891;28;20209;-72
2024/01/25 11:15:52;;;;;;;0.70;0.70;;;;;;;10.17;97.72;100200.31;5030240;28;20231;-73
2024/01/25 11:18:19;;;;;;;0.97;0.97;;;;;;;10.17;96.81;100177.00;5035549;28;20200;-73
2024/01/25 11:20:48;;;;;;;1.37;1.37;;;;;;;10.51;98.36;100188.84;5003013;28;20208;-73
2024/01/25 11:23:17;;;;;;;1.07;1.07;;;;;;;10.56;96.59;100191.50;5036534;28;20299;-72
2024/01/25 11:25:46;;;;;;;0.60;0.60;;;;;;;10.68;99.08;100170.94;5032967;28;20196;-72
2024/01/25 11:28:15;;;;;;;0.60;0.60;;;;;;;10.51;95.30;100165.50;5030056;28;20212;-72
2024/01/25 11:30:44;;;;;;;1.70;1.70;;;;;;;10.62;93.86;100189.00;5029985;28;20710;-72